• Join FlightAware (Why Join?)
  • Login
  • US Flag 
12:50AM EDT


 

Airport Tracker/Info


-or-


 

Live Flight TrackerFlight Track Log ✈ EJA929 ✈ 05-Jan-2014 ✈ KMDW - KBFI

Flight Track Log - Related Links

Times and Time Zones

All times are in EST time to prevent confusion due to time zone crossing. See the EJA929 flight status page for this flight to view local times or setup timezone preferences in your user account.

Time Position Orientation Groundspeed Altitude Reporting Facility
EST Latitude Longitude Course Direction KTS MPH feet Rate Location/Type
03:39PM 41.7825 -87.8161 240° Southwest 232 267 2,000  Level Chicago Center
03:40PM 41.7508 -87.8900 240° Southwest 224 258 2,900 2,160 Climbing Chicago Center
03:41PM 41.7447 -88.0022 266° West 263 303 6,400 3,000 Climbing Chicago Center
03:42PM 41.8047 -88.0350 338° Northwest 261 300 9,100 2,400 Climbing Chicago Center
03:43PM 41.8814 -88.0406 357° North 273 314 11,400 2,280 Climbing Chicago Center
03:44PM 41.9628 -88.0408 360° North 290 334 13,800 1,860 Climbing Chicago Center
03:45PM 42.0500 -88.0392 North 312 359 15,300 1,200 Climbing Chicago Center
03:46PM 42.1500 -88.0361 North 354 407 16,300 960 Climbing Chicago Center
03:47PM 42.2586 -88.0342 North 387 445 17,300 1,080 Climbing Chicago Center
03:48PM 42.3883 -88.0431 357° North 413 475 18,600 1,440 Climbing Chicago Center
03:49PM 42.5025 -88.0839 345° North 424 488 20,300 1,620 Climbing Chicago Center
03:50PM 42.6053 -88.1456 336° Northwest 405 466 22,000 1,440 Climbing Chicago Center
03:51PM 42.6547 -88.2708 298° West 378 435 23,300 1,260 Climbing Chicago Center
03:52PM 42.6972 -88.4044 293° West 382 440 24,600 1,260 Climbing Chicago Center
03:53PM 42.7417 -88.5422 294° West 393 452 25,900 1,320 Climbing Chicago Center
03:54PM 42.7875 -88.6869 293° West 405 466 27,400 1,440 Climbing Chicago Center
03:55PM 42.8353 -88.8417 293° West 428 493 28,900 1,440 Climbing Chicago Center
03:56PM 42.8858 -89.0050 293° West 459 528 30,400 1,440 Climbing Chicago Center
03:57PM 42.9361 -89.1650 293° West 461 531 31,900 1,440 Climbing Chicago Center
03:58PM 42.9872 -89.3283 293° West 467 537 33,400 1,620 Climbing Chicago Center
03:59PM 43.0486 -89.5264 293° West 471 542 35,200 1,560 Climbing Chicago Center
04:00PM 43.0975 -89.6883 293° West 466 536 36,700 1,440 Climbing Chicago Center
04:01PM 43.1425 -89.8447 292° West 452 520 38,200 1,320 Climbing Chicago Center
04:02PM 43.1883 -90.0000 292° West 441 507 39,500 1,080 Climbing Chicago Center
04:03PM 43.2344 -90.1544 292° West 438 504 40,500 900 Climbing Chicago Center
04:04PM 43.2747 -90.2956 291° West 433 498 41,400 780 Climbing Chicago Center
04:05PM 43.3289 -90.4758 292° West 430 495 42,100 480 Climbing Chicago Center
04:07PM 43.3736 -90.6292 292° West 435 501 42,500 300 Climbing Chicago Center
04:08PM 43.4178 -90.7831 292° West 437 503 42,800 240 Climbing Chicago Center
04:09PM 43.4642 -90.9372 293° West 439 505 43,000 60 Climbing Chicago Center
04:10PM 43.5103 -91.0947 292° West 447 514 43,000  Level Chicago Center
04:10PM 43.5464 -91.2211 292° West 447 514 43,000  Level Minneapolis Center
04:11PM 43.5917 -91.3836 291° West 453 521 43,000  Level Minneapolis Center
04:12PM 43.6375 -91.5447 292° West 456 525 43,000  Level Minneapolis Center
04:13PM 43.6833 -91.7081 291° West 459 528 43,000  Level Minneapolis Center
04:14PM 43.7381 -91.9031 291° West 458 527 43,000  Level Minneapolis Center
04:15PM 43.7831 -92.0672 291° West 460 529 43,000  Level Minneapolis Center
04:17PM 43.8319 -92.2431 291° West 457 526 43,000  Level Minneapolis Center
04:18PM 43.8775 -92.4089 291° West 461 531 43,000  Level Minneapolis Center
04:19PM 43.9214 -92.5756 290° West 460 529 43,000  Level Minneapolis Center
04:20PM 43.9658 -92.7422 290° West 461 531 43,000  Level Minneapolis Center
04:21PM 44.0111 -92.9089 291° West 461 531 43,000  Level Minneapolis Center
04:22PM 44.0558 -93.0772 290° West 463 533 43,000  Level Minneapolis Center
04:23PM 44.1000 -93.2458 290° West 462 532 43,000  Level Minneapolis Center
04:24PM 44.1447 -93.4136 290° West 461 531 43,000  Level Minneapolis Center
04:25PM 44.1883 -93.5808 290° West 459 528 43,000  Level Minneapolis Center
04:26PM 44.2400 -93.7814 290° West 458 527 43,000  Level Minneapolis Center
04:27PM 44.2825 -93.9503 289° West 459 528 43,000  Level Minneapolis Center
04:28PM 44.3256 -94.1167 290° West 457 526 43,000  Level Minneapolis Center
04:29PM 44.3681 -94.2856 289° West 458 527 43,000  Level Minneapolis Center
04:30PM 44.4108 -94.4536 290° West 460 529 43,000  Level Minneapolis Center
04:31PM 44.4558 -94.6414 289° West 458 527 43,000  Level Minneapolis Center
04:32PM 44.4972 -94.8067 289° West 454 522 43,000  Level Minneapolis Center
04:33PM 44.5375 -94.9736 289° West 454 522 43,000  Level Minneapolis Center
04:34PM 44.5772 -95.1411 288° West 455 524 43,000  Level Minneapolis Center
04:35PM 44.6175 -95.3089 289° West 456 525 43,000  Level Minneapolis Center
04:36PM 44.6572 -95.4781 288° West 459 528 43,000  Level Minneapolis Center
04:37PM 44.7058 -95.6833 288° West 465 535 43,000  Level Minneapolis Center
04:38PM 44.7461 -95.8544 288° West 466 536 43,000  Level Minneapolis Center
04:39PM 44.7864 -96.0264 288° West 467 537 43,000  Level Minneapolis Center
04:40PM 44.8253 -96.1975 288° West 465 535 43,000  Level Minneapolis Center
04:41PM 44.8647 -96.3692 288° West 464 534 43,000  Level Minneapolis Center
04:42PM 44.9047 -96.5422 288° West 467 537 43,000  Level Minneapolis Center
04:43PM 44.9514 -96.7508 288° West 468 539 43,000  Level Minneapolis Center
04:44PM 44.9903 -96.9258 287° West 470 541 43,000  Level Minneapolis Center
04:45PM 45.0300 -97.1008 288° West 470 541 43,000  Level Minneapolis Center
04:46PM 45.0683 -97.2767 287° West 470 541 43,000  Level Minneapolis Center
04:47PM 45.1083 -97.4517 288° West 469 540 43,000  Level Minneapolis Center
04:48PM 45.1464 -97.6269 287° West 468 539 43,000  Level Minneapolis Center
04:49PM 45.1906 -97.8364 287° West 465 535 43,000  Level Minneapolis Center
04:50PM 45.2286 -98.0103 287° West 465 535 43,000  Level Minneapolis Center
04:51PM 45.2583 -98.1656 285° West 465 535 43,000  Level Minneapolis Center
04:52PM 45.3019 -98.3758 286° West 465 535 43,000  Level Minneapolis Center
04:54PM 45.3397 -98.5539 287° West 470 541 43,000  Level Minneapolis Center
04:55PM 45.3767 -98.7311 287° West 471 542 43,000  Level Minneapolis Center
04:56PM 45.4117 -98.9089 286° West 470 541 43,000  Level Minneapolis Center
04:57PM 45.4464 -99.0836 286° West 465 535 43,000  Level Minneapolis Center
04:58PM 45.4831 -99.2583 287° West 463 533 43,000  Level Minneapolis Center
04:59PM 45.5244 -99.4692 286° West 465 535 43,000  Level Minneapolis Center
05:00PM 45.5578 -99.6431 285° West 461 531 43,000  Level Minneapolis Center
05:01PM 45.5914 -99.8169 285° West 461 531 43,000  Level Minneapolis Center
05:02PM 45.6247 -99.9911 285° West 460 529 43,000  Level Minneapolis Center
05:03PM 45.6575 -100.1644 285° West 457 526 43,000 -60 Level Minneapolis Center
05:04PM 45.6906 -100.3389 285° West 457 526 42,900  Descending Minneapolis Center
05:05PM 45.7311 -100.5528 285° West 465 535 43,000  Climbing Minneapolis Center
05:06PM 45.7633 -100.7272 285° West 461 531 43,000  Level Minneapolis Center
05:07PM 45.7967 -100.9042 285° West 461 531 43,000  Level Minneapolis Center
05:08PM 45.8281 -101.0819 284° West 462 532 43,000  Level Minneapolis Center
05:09PM 45.8622 -101.2611 285° West 466 536 43,000  Level Minneapolis Center
05:10PM 45.8936 -101.4389 284° West 464 534 43,000  Level Minneapolis Center
05:11PM 45.9272 -101.6156 285° West 462 532 43,000  Level Minneapolis Center
05:12PM 45.9556 -101.7947 283° West 461 531 43,000  Level Minneapolis Center
05:13PM 45.9897 -102.0111 283° West 463 533 43,000  Level Minneapolis Center
05:14PM 46.0206 -102.1892 284° West 463 533 43,000  Level Minneapolis Center
05:15PM 46.0517 -102.3694 284° West 463 533 43,000  Level Minneapolis Center
05:16PM 46.0817 -102.5483 284° West 463 533 43,000 -60 Level Minneapolis Center
05:17PM 46.1142 -102.7244 285° West 464 534 42,900 -60 Descending Minneapolis Center
05:18PM 46.1453 -102.9092 284° West 467 537 42,900  Level Minneapolis Center
05:19PM 46.1731 -103.0925 282° West 469 540 42,900  Level Minneapolis Center
05:20PM 46.2019 -103.2714 283° West 466 536 43,000  Climbing Minneapolis Center
05:21PM 46.2300 -103.4519 283° West 464 534 43,000 -60 Level Minneapolis Center
05:22PM 46.2639 -103.6653 283° West 460 529 42,900  Descending Minneapolis Center
05:23PM 46.2917 -103.8433 283° West 457 526 43,000  Climbing Minneapolis Center
05:24PM 46.3183 -104.0228 282° West 457 526 42,900  Descending Minneapolis Center
05:25PM 46.3458 -104.2056 282° West 458 527 43,000  Climbing Minneapolis Center
05:26PM 46.3731 -104.3906 282° West 463 533 42,900 -60 Descending Minneapolis Center
05:28PM 46.4081 -104.6461 281° West 464 534 42,900  Level Salt Lake Center
05:29PM 46.4350 -104.8383 282° West 465 535 43,000  Climbing Salt Lake Center
05:30PM 46.4614 -105.0192 282° West 463 533 43,000  Level Salt Lake Center
05:31PM 46.4872 -105.2019 282° West 464 534 43,000  Level Salt Lake Center
05:32PM 46.5175 -105.4186 282° West 461 531 43,000  Level Salt Lake Center
05:33PM 46.5431 -105.6003 282° West 461 531 43,000  Level Salt Lake Center
05:34PM 46.5694 -105.7864 282° West 467 537 43,000  Level Salt Lake Center
05:35PM 46.5933 -105.9683 281° West 466 536 43,000  Level Salt Lake Center
05:36PM 46.6164 -106.1503 281° West 463 533 43,000  Level Salt Lake Center
05:37PM 46.6456 -106.3694 281° West 462 532 43,000  Level Salt Lake Center
05:38PM 46.6725 -106.5608 282° West 468 539 43,000  Level Salt Lake Center
05:39PM 46.6950 -106.7464 280° West 470 541 43,000  Level Salt Lake Center
05:40PM 46.7183 -106.9283 281° West 463 533 43,000  Level Salt Lake Center
05:41PM 46.7406 -107.1119 280° West 463 533 43,000  Level Salt Lake Center
05:42PM 46.7636 -107.2953 280° West 463 533 43,000  Level Salt Lake Center
05:43PM 46.7897 -107.5147 280° West 461 531 43,000  Level Salt Lake Center
05:44PM 46.8106 -107.6939 280° West 458 527 43,000  Level Salt Lake Center
05:45PM 46.8319 -107.8722 280° West 454 522 43,000  Level Salt Lake Center
05:46PM 46.8533 -108.0678 279° West 465 535 43,000  Level Salt Lake Center
05:47PM 46.8739 -108.2539 279° West 467 537 43,000  Level Salt Lake Center
05:48PM 46.8978 -108.4708 279° West 457 526 43,000  Level Salt Lake Center
05:49PM 46.9178 -108.6533 279° West 457 526 43,000  Level Salt Lake Center
05:50PM 46.9369 -108.8347 279° West 455 524 43,000  Level Salt Lake Center
05:52PM 46.9569 -109.0183 279° West 457 526 43,000  Level Salt Lake Center
05:53PM 46.9783 -109.2011 280° West 460 529 43,000 -60 Level Salt Lake Center
05:54PM 46.9967 -109.3869 278° West 461 531 42,900  Descending Salt Lake Center
05:55PM 47.0142 -109.5678 278° West 453 521 43,000  Climbing Salt Lake Center
05:56PM 47.0367 -109.7864 279° West 452 520 42,900 -60 Descending Salt Lake Center
05:57PM 47.0544 -109.9703 278° West 454 522 42,900  Level Salt Lake Center
05:58PM 47.0708 -110.1553 277° West 456 525 42,900  Level Salt Lake Center
05:59PM 47.0875 -110.3383 278° West 455 524 42,900  Level Salt Lake Center
06:00PM 47.1053 -110.5228 278° West 456 525 42,900  Level Salt Lake Center
06:01PM 47.1211 -110.7067 277° West 453 521 43,000  Climbing Salt Lake Center
06:02PM 47.1411 -110.9206 278° West 442 509 42,900 -60 Descending Salt Lake Center
06:03PM 47.1561 -111.1006 277° West 442 509 42,900  Level Salt Lake Center
06:04PM 47.1717 -111.2800 277° West 441 507 42,900  Level Salt Lake Center
06:05PM 47.1869 -111.4608 277° West 442 509 42,900  Level Salt Lake Center
06:06PM 47.2017 -111.6419 277° West 443 510 42,900  Level Salt Lake Center
06:07PM 47.2164 -111.8231 277° West 445 512 42,900  Level Salt Lake Center
06:08PM 47.2311 -112.0067 277° West 450 518 42,900  Level Salt Lake Center
06:09PM 47.2436 -112.1883 276° West 447 514 42,900  Level Salt Lake Center
06:10PM 47.2597 -112.4003 276° West 437 503 42,900  Level Salt Lake Center
06:11PM 47.2733 -112.5769 277° West 434 499 42,900  Level Salt Lake Center
06:12PM 47.2864 -112.7517 276° West 432 497 42,900  Level Salt Lake Center
06:13PM 47.2981 -112.9275 276° West 432 497 42,900  Level Salt Lake Center
06:14PM 47.3108 -113.0981 276° West 437 503 42,900  Level Salt Lake Center
06:15PM 47.3239 -113.3108 275° West 435 501 42,900  Level Salt Lake Center
06:16PM 47.3361 -113.4881 276° West 436 502 42,900  Level Salt Lake Center
06:17PM 47.3475 -113.6681 275° West 439 505 42,900  Level Salt Lake Center
06:18PM 47.3592 -113.8475 276° West 440 506 42,900  Level Salt Lake Center
06:19PM 47.3708 -114.0272 276° West 439 505 42,900  Level Salt Lake Center
06:20PM 47.3808 -114.2050 275° West 435 501 42,900  Level Salt Lake Center
06:21PM 47.3911 -114.3811 275° West 430 495 42,900  Level Salt Lake Center
06:22PM 47.4017 -114.5581 275° West 431 496 42,900  Level Salt Lake Center
06:24PM 47.4128 -114.7714 274° West 433 498 42,900  Level Salt Lake Center
06:24PM 47.4194 -114.8769 275° West 430 495 42,900  Level Seattle Center
06:25PM 47.4281 -115.0536 274° West 430 495 42,900  Level Seattle Center
06:26PM 47.4375 -115.2286 275° West 429 494 42,900  Level Seattle Center
06:27PM 47.4467 -115.4408 274° West 431 496 42,900  Level Seattle Center
06:28PM 47.4558 -115.6183 274° West 433 498 42,900  Level Seattle Center
06:29PM 47.4647 -115.7736 275° West 434 499 42,900  Level Seattle Center
06:30PM 47.4756 -115.9519 275° West 437 503 42,900  Level Seattle Center
06:31PM 47.4881 -116.1664 275° West 439 505 42,900  Level Seattle Center
06:32PM 47.4981 -116.3461 275° West 439 505 42,900  Level Seattle Center
06:33PM 47.5089 -116.5267 275° West 441 507 42,900  Level Seattle Center
06:34PM 47.5189 -116.7108 275° West 448 516 42,900  Level Seattle Center
06:35PM 47.5292 -116.8933 275° West 447 514 42,900  Level Seattle Center
06:36PM 47.5378 -117.0639 274° West 449 517 42,900  Level Seattle Center
06:38PM 47.5478 -117.2747 274° West 448 516 42,900  Level Seattle Center
06:39PM 47.5567 -117.4592 274° West 447 514 42,900  Level Seattle Center
06:40PM 47.5658 -117.6425 274° West 448 516 42,900  Level Seattle Center
06:41PM 47.5836 -117.8244 278° West 446 513 42,900  Level Seattle Center
06:42PM 47.6006 -118.0064 278° West 447 514 42,900  Level Seattle Center
06:43PM 47.6169 -118.1908 278° West 451 519 42,900  Level Seattle Center
06:44PM 47.6339 -118.3731 278° West 449 517 42,900  Level Seattle Center
06:45PM 47.6508 -118.5578 278° West 452 520 42,900  Level Seattle Center
06:46PM 47.6658 -118.7422 277° West 452 520 42,900  Level Seattle Center
06:47PM 47.6817 -118.9289 277° West 455 524 42,900 -120 Level Seattle Center
06:48PM 47.6975 -119.1128 277° West 452 520 42,700 -960 Descending Seattle Center
06:49PM 47.7133 -119.2986 277° West 453 521 41,000 -1,860 Descending Seattle Center
06:50PM 47.7278 -119.4869 277° West 459 528 39,000 -2,220 Descending Seattle Center
06:51PM 47.7467 -119.7144 277° West 465 535 36,600 -2,220 Descending Seattle Center
06:52PM 47.7611 -119.9061 276° West 467 537 34,500 -2,280 Descending Seattle Center
06:53PM 47.7750 -120.0942 276° West 460 529 32,000 -2,760 Descending Seattle Center
06:54PM 47.7889 -120.2858 276° West 465 535 29,000 -2,820 Descending Seattle Center
06:55PM 47.8028 -120.4772 276° West 466 536 26,300 -2,580 Descending Seattle Center
06:56PM 47.8167 -120.6606 277° West 449 517 23,800 -2,460 Descending Seattle Center
06:57PM 47.8289 -120.8394 276° West 438 504 21,300 -2,580 Descending Seattle Center
06:58PM 47.8442 -121.0225 277° West 421 484 18,700 -2,280 Descending Seattle Center
06:58PM 47.8428 -121.0050 97° East 424 488 19,000 -1,980 Climbing Seattle Center
06:59PM 47.8522 -121.1639 275° West 410 472 17,100 -1,980 Descending Seattle Center
06:59PM 47.8525 -121.1739 272° West 411 473 17,000 -2,460 Descending Seattle Center
07:00PM 47.8622 -121.3208 276° West 374 430 14,600 -2,820 Descending Seattle Center
07:00PM 47.8644 -121.3597 275° West 370 426 14,000 -2,460 Descending Seattle Center
07:01PM 47.8728 -121.4642 277° West 326 375 12,100 -2,520 Descending Seattle Center
07:01PM 47.8725 -121.4986 269° West 337 388 11,500 -1,140 Descending Seattle Center
07:02PM 47.8783 -121.5803 276° West 302 348 11,100 -540 Descending Seattle Center
07:02PM 47.8803 -121.6214 274° West 300 345 11,000 -240 Descending Seattle Center
07:03PM 47.8786 -121.7028 268° West 292 336 10,900 -420 Descending Seattle Center
07:03PM 47.8611 -121.7369 233° Southwest 298 343 10,600 -1,320 Descending Seattle Center
07:04PM 47.8081 -121.7925 215° Southwest 298 343 9,500 -1,620 Descending Seattle Center
07:04PM 47.7836 -121.8044 198° South 292 336 9,000 -1,560 Descending Seattle Center
07:05PM 47.7308 -121.8297 198° South 295 339 7,900 -1,620 Descending Seattle Center
07:05PM 47.7061 -121.8406 196° South 290 334 7,400 -1,560 Descending Seattle Center
07:06PM 47.6631 -121.8611 198° South 277 319 6,500 -1,620 Descending Seattle Center
07:06PM 47.6356 -121.8750 199° South 270 311 5,800 -1,260 Descending Seattle Center
07:07PM 47.5886 -121.9000 200° South 259 298 5,100 -720 Descending Seattle Center
07:07PM 47.5678 -121.9114 200° South 259 298 5,100 -540 Level Seattle Center
07:08PM 47.5217 -121.9342 198° South 256 295 4,600 -840 Descending Seattle Center
07:08PM 47.5000 -121.9478 203° Southwest 259 298 4,300 -360 Descending Seattle Center
07:09PM 47.4456 -121.9931 209° Southwest 265 305 4,200 -120 Descending Seattle Center
07:09PM 47.4375 -122.0172 244° Southwest 271 312 4,200 -300 Level Seattle Center
07:10PM 47.4103 -122.0817 238° Southwest 243 280 3,900 -840 Descending Seattle Center
07:10PM 47.4022 -122.1011 239° Southwest 244 281 3,400 -1,860 Descending Seattle Center
07:11PM 47.3914 -122.1642 256° West 231 266 2,200 -1,320 Descending Seattle Center
07:11PM 47.3953 -122.1906 282° West 229 264 2,100  Descending Seattle Center
07:12PM 47.4242 -122.2147 330° Northwest 167 192 2,200  Climbing Seattle Center
07:12PM 47.4364 -122.2244 332° Northwest 170 196 2,100 -600 Descending Seattle Center
07:13PM 47.4597 -122.2411 334° Northwest 131 151 1,600 -720 Descending Seattle Center
07:13PM 47.4683 -122.2522 319° Northwest 139 160 1,400 -840 Descending Seattle Center
07:14PM 47.4894 -122.2706 330° Northwest 108 124 800 -840 Descending Seattle Center
07:14PM 47.4981 -122.2767 334° Northwest 117 135 600 -540 Descending Seattle Center
07:15PM 47.5264 -122.3000 331° Northwest 114 131 100 -540 Descending Seattle Center